Delta Virtual Airport Information Service

Sao Paulo Congonhas Airport

ICAO: SBSP Country: Brazil
Latitude: -23.6266 Longitude: -46.6553
Latest Arrival : DAC3285 (SBKP-SBSP) Latest Departure : DAC3285 (SBSP-SBGR)


WX CaptureLIVE
Data provided by noaa.gov | Fetched at 18:34:03

METAR : SBSP 172200Z 36011KT 9999 -RA NSC 20/13 Q1017

TAF : SBSP 172200Z 36011KT 9999 -RA NSC 20/13 Q1017


Runway Data for SBSP
Data provided by openaviationdata.com

Runway ID Mag Var Hdg Length Elevation Surface ILS Freq ILS Id ILS Slope
17L -20 167° 4679 ft 2630 ft Asphalt -- -- --
17R -20 167° 6372 ft 2630 ft Asphalt 109.3 ISP 2
35L -20 347° 6372 ft 2630 ft Asphalt 110.1 ICO 3
35R -20 347° 4679 ft 2630 ft Asphalt -- -- --

Sao Paulo Congonhas Airport, Brazil
Use only for reference purposes



Not for navigational purposes.